createdAt,value
2017-11-13T00:01:55.321Z,4.10
2017-11-13T00:04:23.624Z,3.60
2017-11-13T00:06:51.781Z,3.42
2017-11-13T00:09:20.700Z,2.55
2017-11-13T00:11:48.858Z,3.97
2017-11-13T00:14:17.138Z,3.42
2017-11-13T00:16:45.288Z,3.95
2017-11-13T00:19:13.435Z,3.67
2017-11-13T00:21:41.604Z,3.40
2017-11-13T00:24:09.823Z,3.22
2017-11-13T00:26:37.976Z,3.15
2017-11-13T00:29:06.192Z,3.75
2017-11-13T00:31:34.335Z,2.85
2017-11-13T00:34:06.226Z,3.75
2017-11-13T00:36:34.391Z,3.00
2017-11-13T00:39:02.565Z,3.92
2017-11-13T00:41:30.727Z,3.20
2017-11-13T00:43:59.743Z,2.95
2017-11-13T00:46:27.890Z,3.00
2017-11-13T00:48:56.099Z,3.90
2017-11-13T00:51:24.909Z,3.50
2017-11-13T00:53:54.069Z,3.03
2017-11-13T00:56:22.216Z,3.65
2017-11-13T00:58:50.680Z,3.97
2017-11-13T01:01:18.823Z,3.90
2017-11-13T01:03:49.028Z,3.55
2017-11-13T01:06:17.168Z,3.05
2017-11-13T01:08:46.092Z,2.95
2017-11-13T01:11:14.251Z,3.25
2017-11-13T01:13:46.213Z,3.75
2017-11-13T01:16:14.364Z,4.25
2017-11-13T01:18:42.568Z,3.80
2017-11-13T01:21:11.347Z,4.93
2017-11-13T01:23:40.575Z,5.55
2017-11-13T01:26:08.722Z,4.32
2017-11-13T01:28:36.871Z,4.10
2017-11-13T01:31:05.026Z,3.85
2017-11-13T01:33:33.255Z,4.28
2017-11-13T01:36:01.627Z,4.60
2017-11-13T01:38:29.786Z,5.20
2017-11-13T01:40:57.961Z,5.35
2017-11-13T01:43:26.876Z,5.03
2017-11-13T01:45:55.023Z,6.62
2017-11-13T01:48:23.188Z,4.93
2017-11-13T01:50:51.325Z,4.30
2017-11-13T01:53:19.458Z,4.72
2017-11-13T01:55:47.604Z,4.95
2017-11-13T01:58:15.765Z,3.60
2017-11-13T02:00:43.932Z,4.75
2017-11-13T02:03:12.087Z,4.53
2017-11-13T02:05:40.247Z,5.25
2017-11-13T02:08:08.437Z,5.53
2017-11-13T02:10:36.606Z,4.65
2017-11-13T02:13:04.762Z,4.62
2017-11-13T02:15:35.002Z,5.53
2017-11-13T02:18:03.171Z,5.32
2017-11-13T02:20:31.319Z,6.07
2017-11-13T02:22:59.480Z,5.25
2017-11-13T02:25:28.485Z,4.97
2017-11-13T02:27:56.741Z,5.78
2017-11-13T02:30:25.668Z,5.03
2017-11-13T02:32:53.824Z,6.25
2017-11-13T02:35:24.209Z,4.47
2017-11-13T02:37:52.373Z,4.90
2017-11-13T02:40:20.535Z,4.87
2017-11-13T02:42:48.702Z,4.90
2017-11-13T02:45:16.962Z,4.62
2017-11-13T02:47:45.140Z,4.22
2017-11-13T02:50:13.308Z,4.75
2017-11-13T02:52:41.455Z,4.75
2017-11-13T02:55:10.474Z,4.30
2017-11-13T02:57:38.631Z,5.00
2017-11-13T03:00:08.431Z,5.00
2017-11-13T03:02:37.353Z,4.85
2017-11-13T03:05:05.617Z,5.20
2017-11-13T03:07:33.778Z,4.97
2017-11-13T03:10:02.319Z,6.90
2017-11-13T03:12:30.471Z,5.80
2017-11-13T03:14:58.782Z,6.10
2017-11-13T03:17:26.931Z,5.65
2017-11-13T03:19:55.107Z,6.62
2017-11-13T03:22:23.258Z,6.18
2017-11-13T03:24:51.427Z,7.40
2017-11-13T03:27:19.596Z,6.35
2017-11-13T03:29:48.521Z,6.35
2017-11-13T03:32:16.878Z,5.93
2017-11-13T03:34:45.131Z,5.90
2017-11-13T03:37:13.299Z,6.07
2017-11-13T03:39:42.278Z,5.85
2017-11-13T03:42:10.455Z,6.97
2017-11-13T03:44:38.665Z,6.20
2017-11-13T03:47:06.824Z,6.22
2017-11-13T03:49:35.762Z,6.20
2017-11-13T03:52:04.376Z,6.05
2017-11-13T03:54:38.400Z,5.60
2017-11-13T03:57:07.315Z,5.93
2017-11-13T03:59:35.479Z,6.35
2017-11-13T04:02:04.135Z,5.32
2017-11-13T04:04:32.291Z,6.97
2017-11-13T04:07:00.451Z,5.22
2017-11-13T04:09:28.613Z,5.00
2017-11-13T04:11:56.782Z,5.32
2017-11-13T04:14:24.922Z,5.50
2017-11-13T04:16:53.083Z,5.20
2017-11-13T04:19:21.240Z,5.85
2017-11-13T04:21:49.394Z,5.50
2017-11-13T04:24:17.643Z,5.62
2017-11-13T04:26:45.790Z,5.10
2017-11-13T04:29:14.706Z,5.07
2017-11-13T04:31:42.859Z,5.43
2017-11-13T04:34:11.152Z,6.78
2017-11-13T04:36:39.330Z,5.85
2017-11-13T04:39:07.500Z,5.45
2017-11-13T04:41:36.559Z,5.70
2017-11-13T04:44:08.354Z,5.65
2017-11-13T04:46:36.608Z,6.03
2017-11-13T04:49:04.768Z,5.75
2017-11-13T04:51:32.924Z,5.32
2017-11-13T04:54:01.079Z,5.03
2017-11-13T04:56:29.225Z,5.55
2017-11-13T04:58:57.375Z,5.00
2017-11-13T05:01:25.555Z,5.32
2017-11-13T05:03:58.048Z,5.70
2017-11-13T05:06:26.968Z,5.47
2017-11-13T05:08:55.145Z,6.30
2017-11-13T05:11:23.288Z,5.65
2017-11-13T05:13:51.565Z,5.65
2017-11-13T05:16:19.721Z,7.35
2017-11-13T05:18:48.655Z,6.07
2017-11-13T05:21:17.033Z,6.30
2017-11-13T05:23:46.354Z,5.90
2017-11-13T05:26:14.513Z,5.40
2017-11-13T05:28:42.670Z,7.00
2017-11-13T05:31:10.829Z,6.35
2017-11-13T05:33:39.817Z,5.95
2017-11-13T05:36:07.966Z,5.50
2017-11-13T05:38:36.115Z,6.05
2017-11-13T05:41:04.282Z,5.95
2017-11-13T05:43:36.194Z,5.75
2017-11-13T05:46:04.340Z,6.15
2017-11-13T05:48:33.565Z,6.35
2017-11-13T05:51:01.720Z,7.05
2017-11-13T05:53:29.941Z,7.47
2017-11-13T05:55:58.083Z,7.87
2017-11-13T05:58:26.991Z,7.47
2017-11-13T06:00:55.148Z,7.37
2017-11-13T06:03:23.297Z,7.45
2017-11-13T06:05:51.457Z,5.97
2017-11-13T06:08:19.622Z,6.97
2017-11-13T06:10:47.782Z,6.95
2017-11-13T06:13:15.995Z,7.72
2017-11-13T06:15:44.155Z,7.80
2017-11-13T06:18:12.334Z,8.23
2017-11-13T06:20:41.141Z,6.62
2017-11-13T06:23:09.340Z,7.30
2017-11-13T06:25:37.484Z,8.60
2017-11-13T06:28:06.336Z,7.35
2017-11-13T06:30:34.826Z,8.77
2017-11-13T06:33:03.389Z,7.30
2017-11-13T06:35:31.548Z,7.85
2017-11-13T06:38:00.451Z,8.60
2017-11-13T06:40:28.867Z,8.82
2017-11-13T06:42:57.881Z,6.85
2017-11-13T06:45:26.204Z,8.40
2017-11-13T06:47:54.367Z,7.68
2017-11-13T06:50:22.526Z,9.45
2017-11-13T06:52:50.704Z,10.57
2017-11-13T06:55:19.108Z,9.13
2017-11-13T06:57:48.884Z,10.93
2017-11-13T07:00:18.578Z,9.60
2017-11-13T07:02:47.123Z,9.80
2017-11-13T07:05:20.398Z,10.57
2017-11-13T07:07:48.588Z,10.18
2017-11-13T07:10:16.972Z,10.15
2017-11-13T07:12:45.153Z,9.63
2017-11-13T07:15:16.886Z,10.80
2017-11-13T07:17:45.062Z,10.05
2017-11-13T07:20:13.937Z,11.35
2017-11-13T07:22:42.103Z,10.00
2017-11-13T07:25:17.947Z,11.52
2017-11-13T07:27:46.891Z,9.95
2017-11-13T07:30:16.909Z,11.45
2017-11-13T07:32:45.090Z,11.32
2017-11-13T07:35:14.198Z,11.68
2017-11-13T07:37:42.435Z,9.00
2017-11-13T07:40:10.589Z,10.00
2017-11-13T07:42:38.762Z,10.27
2017-11-13T07:45:13.175Z,10.98
2017-11-13T07:47:42.109Z,11.50
2017-11-13T07:50:11.141Z,10.07
2017-11-13T07:52:39.336Z,11.73
2017-11-13T07:55:08.159Z,11.20
2017-11-13T07:57:37.000Z,11.45
2017-11-13T08:00:05.194Z,10.07
2017-11-13T08:02:33.413Z,10.65
2017-11-13T08:05:02.613Z,10.63
2017-11-13T08:07:30.767Z,10.70
2017-11-13T08:09:58.920Z,8.32
2017-11-13T08:12:27.107Z,9.90
2017-11-13T08:15:00.322Z,9.85
2017-11-13T08:17:30.510Z,8.30
2017-11-13T08:19:58.664Z,8.85
2017-11-13T08:22:27.601Z,10.63
2017-11-13T08:24:55.766Z,8.73
2017-11-13T08:27:23.913Z,10.60
2017-11-13T08:29:52.833Z,9.50
2017-11-13T08:32:21.664Z,8.18
2017-11-13T08:34:50.899Z,8.82
2017-11-13T08:37:19.068Z,8.23
2017-11-13T08:39:47.972Z,7.65
2017-11-13T08:42:16.135Z,6.43
2017-11-13T08:44:44.421Z,7.95
2017-11-13T08:47:13.475Z,8.25
2017-11-13T08:49:41.640Z,6.60
2017-11-13T08:52:09.788Z,5.82
2017-11-13T08:54:38.945Z,6.53
2017-11-13T08:57:07.862Z,5.32
2017-11-13T08:59:36.023Z,5.95
2017-11-13T09:02:04.158Z,4.87
2017-11-13T09:04:32.295Z,4.75
2017-11-13T09:07:00.444Z,6.32
2017-11-13T09:09:29.278Z,6.72
2017-11-13T09:11:57.456Z,5.50
2017-11-13T09:14:29.433Z,5.22
2017-11-13T09:17:00.805Z,5.00
2017-11-13T09:19:28.991Z,5.85
2017-11-13T09:21:57.978Z,6.53
2017-11-13T09:24:26.891Z,5.57
2017-11-13T09:26:55.040Z,5.68
2017-11-13T09:29:23.948Z,6.53
2017-11-13T09:31:52.104Z,5.75
2017-11-13T09:34:20.423Z,6.65
2017-11-13T09:36:48.569Z,6.07
2017-11-13T09:39:16.714Z,6.55
2017-11-13T09:41:44.917Z,5.82
2017-11-13T09:44:14.156Z,7.03
2017-11-13T09:46:42.346Z,7.57
2017-11-13T09:49:11.423Z,8.00
2017-11-13T09:51:39.661Z,8.02
2017-11-13T09:54:07.890Z,7.60
2017-11-13T09:56:36.152Z,8.65
2017-11-13T09:59:04.350Z,8.02
2017-11-13T10:01:32.544Z,9.20
2017-11-13T10:04:04.965Z,7.72
2017-11-13T10:06:33.219Z,7.53
2017-11-13T10:09:01.435Z,5.78
2017-11-13T10:11:29.729Z,7.85
2017-11-13T10:13:57.980Z,6.82
2017-11-13T10:16:26.223Z,6.95
2017-11-13T10:18:54.475Z,6.20
2017-11-13T10:21:23.441Z,6.80
2017-11-13T10:23:51.749Z,6.30
2017-11-13T10:26:20.014Z,4.45
2017-11-13T10:28:48.210Z,5.72
2017-11-13T10:31:16.400Z,5.72
2017-11-13T10:33:44.589Z,6.12
2017-11-13T10:36:12.853Z,5.43
2017-11-13T10:38:41.404Z,5.00
2017-11-13T10:41:10.375Z,6.37
2017-11-13T10:43:38.626Z,7.12
2017-11-13T10:46:06.853Z,7.12
2017-11-13T10:48:35.065Z,5.50
2017-11-13T10:51:03.256Z,6.65
2017-11-13T10:53:39.300Z,6.18
2017-11-13T10:56:07.529Z,4.10
2017-11-13T10:58:35.755Z,5.30
2017-11-13T11:01:03.949Z,4.15
2017-11-13T11:03:32.145Z,4.68
2017-11-13T11:06:01.127Z,4.62
2017-11-13T11:08:29.318Z,4.15
2017-11-13T11:10:58.348Z,5.50
2017-11-13T11:13:27.122Z,6.70
2017-11-13T11:15:55.306Z,6.43
2017-11-13T11:18:23.515Z,5.80
2017-11-13T11:20:57.376Z,5.12
2017-11-13T11:23:41.494Z,5.03
2017-11-13T11:26:28.505Z,5.82
2017-11-13T11:29:02.246Z,3.80
2017-11-13T11:31:34.391Z,4.05
2017-11-13T11:34:13.365Z,4.30
2017-11-13T11:37:01.389Z,4.57
2017-11-13T11:39:29.596Z,3.87
2017-11-13T11:41:57.842Z,4.28
2017-11-13T11:44:26.697Z,3.60
2017-11-13T11:46:55.642Z,4.65
2017-11-13T11:49:29.395Z,5.03
2017-11-13T11:51:58.469Z,5.43
2017-11-13T11:54:29.191Z,6.00
2017-11-13T11:57:00.910Z,9.13
2017-11-13T11:59:29.178Z,6.78
2017-11-13T12:01:57.385Z,6.57
2017-11-13T12:04:25.595Z,7.47
2017-11-13T12:06:53.844Z,5.70
2017-11-13T12:09:22.074Z,6.60
2017-11-13T12:11:50.278Z,6.57
2017-11-13T12:14:19.555Z,8.57
2017-11-13T12:16:47.770Z,8.13
2017-11-13T12:19:16.028Z,8.13
2017-11-13T12:21:44.222Z,7.40
2017-11-13T12:24:12.442Z,6.65
2017-11-13T12:26:41.790Z,7.15
2017-11-13T12:29:09.992Z,6.65
2017-11-13T12:31:38.183Z,7.07
2017-11-13T12:34:10.827Z,7.12
2017-11-13T12:36:42.990Z,7.15
2017-11-13T12:39:11.215Z,6.15
2017-11-13T12:41:39.554Z,6.68
2017-11-13T12:44:07.822Z,7.32
2017-11-13T12:46:36.044Z,7.37
2017-11-13T12:49:04.317Z,6.97
2017-11-13T12:51:32.520Z,8.75
2017-11-13T12:54:00.786Z,7.68
2017-11-13T12:56:29.037Z,7.85
2017-11-13T12:58:58.042Z,6.80
2017-11-13T13:01:26.258Z,6.57
2017-11-13T13:03:54.458Z,7.10
2017-11-13T13:06:22.677Z,7.00
2017-11-13T13:08:52.079Z,6.93
2017-11-13T13:11:20.439Z,6.32
2017-11-13T13:13:52.288Z,6.60
2017-11-13T13:16:27.060Z,7.22
2017-11-13T13:18:55.281Z,5.60
2017-11-13T13:21:23.479Z,4.45
2017-11-13T13:23:53.766Z,4.40
2017-11-13T13:26:22.002Z,5.05
2017-11-13T13:28:50.263Z,4.85
2017-11-13T13:31:20.499Z,5.90
2017-11-13T13:33:50.189Z,5.93
2017-11-13T13:36:18.550Z,6.87
2017-11-13T13:38:46.779Z,6.50
2017-11-13T13:41:15.010Z,5.55
2017-11-13T13:43:45.304Z,6.85
2017-11-13T13:46:13.612Z,5.95
2017-11-13T13:48:42.850Z,5.53
2017-11-13T13:51:11.096Z,5.60
2017-11-13T13:53:40.240Z,5.07
2017-11-13T13:56:08.453Z,4.80
2017-11-13T13:58:36.931Z,4.45
2017-11-13T14:01:05.141Z,5.80
2017-11-13T14:03:34.895Z,5.12
2017-11-13T14:06:03.468Z,5.65
2017-11-13T14:08:32.132Z,6.05
2017-11-13T14:11:02.079Z,5.60
2017-11-13T14:13:30.344Z,5.57
2017-11-13T14:15:58.550Z,5.37
2017-11-13T14:18:26.746Z,5.20
2017-11-13T14:20:55.767Z,5.53
2017-11-13T14:23:27.560Z,6.20
2017-11-13T14:25:57.612Z,6.47
2017-11-13T14:28:26.964Z,5.40
2017-11-13T14:30:55.650Z,5.12
2017-11-13T14:33:24.235Z,4.45
2017-11-13T14:35:54.606Z,4.60
2017-11-13T14:38:22.898Z,4.50
2017-11-13T14:40:51.112Z,6.32
2017-11-13T14:43:19.358Z,3.58
2017-11-13T14:45:49.712Z,3.50
2017-11-13T14:48:18.685Z,4.32
2017-11-13T14:50:47.131Z,3.78
2017-11-13T14:53:16.220Z,4.20
2017-11-13T14:55:44.428Z,3.58
2017-11-13T14:58:13.104Z,4.68
2017-11-13T15:00:41.380Z,3.67
2017-11-13T15:03:09.586Z,3.85
2017-11-13T15:05:38.033Z,3.55
2017-11-13T15:08:06.225Z,4.55
2017-11-13T15:10:34.505Z,4.40
2017-11-13T15:13:02.668Z,4.93
2017-11-13T15:15:32.500Z,6.28
2017-11-13T15:18:00.645Z,5.50
2017-11-13T15:20:31.128Z,5.40
2017-11-13T15:22:59.303Z,5.28
2017-11-13T15:25:27.673Z,5.12
2017-11-13T15:27:55.812Z,5.50
2017-11-13T15:30:23.976Z,5.55
2017-11-13T15:32:52.907Z,5.10
2017-11-13T15:35:21.377Z,4.85
2017-11-13T15:37:49.544Z,5.70
2017-11-13T15:40:17.709Z,6.50
2017-11-13T15:42:45.875Z,4.82
2017-11-13T15:45:14.154Z,6.40
2017-11-13T15:47:42.305Z,8.88
2017-11-13T15:50:10.478Z,6.75
2017-11-13T15:52:38.637Z,5.00
2017-11-13T15:55:06.881Z,5.05
2017-11-13T15:57:35.039Z,6.15
2017-11-13T16:00:03.225Z,7.20
2017-11-13T16:02:31.377Z,7.05
2017-11-13T16:05:03.229Z,7.72
2017-11-13T16:07:31.389Z,9.05
2017-11-13T16:10:00.421Z,8.55
2017-11-13T16:12:28.580Z,6.28
2017-11-13T16:14:56.749Z,6.93
2017-11-13T16:17:25.775Z,7.43
2017-11-13T16:19:53.912Z,5.68
2017-11-13T16:22:22.463Z,7.97
2017-11-13T16:24:50.675Z,8.35
2017-11-13T16:27:18.829Z,8.38
2017-11-13T16:29:46.974Z,10.55
2017-11-13T16:32:16.388Z,10.85
2017-11-13T16:34:44.731Z,9.90
2017-11-13T16:37:12.883Z,9.57
2017-11-13T16:39:41.078Z,11.12
2017-11-13T16:42:09.315Z,9.65
2017-11-13T16:44:37.592Z,8.55
2017-11-13T16:47:05.797Z,10.95
2017-11-13T16:49:33.953Z,10.35
2017-11-13T16:52:02.123Z,8.77
2017-11-13T16:54:30.403Z,9.70
2017-11-13T16:56:58.573Z,8.63
2017-11-13T16:59:27.512Z,11.18
2017-11-13T17:01:55.663Z,11.90
2017-11-13T17:04:23.911Z,18.42
2017-11-13T17:06:52.076Z,11.07
2017-11-13T17:09:21.001Z,7.37
2017-11-13T17:11:49.135Z,6.43
2017-11-13T17:14:17.285Z,7.35
2017-11-13T17:16:45.428Z,7.10
2017-11-13T17:19:13.580Z,5.62
2017-11-13T17:21:44.601Z,5.47
2017-11-13T17:24:13.610Z,7.03
2017-11-13T17:26:43.402Z,5.70
2017-11-13T17:29:11.574Z,6.65
2017-11-13T17:31:40.506Z,6.45
2017-11-13T17:34:08.750Z,6.37
2017-11-13T17:36:37.663Z,7.68
2017-11-13T17:39:05.810Z,6.30
2017-11-13T17:41:34.710Z,7.68
2017-11-13T17:44:04.756Z,6.28
2017-11-13T17:46:33.818Z,7.82
2017-11-13T17:49:01.998Z,10.40
2017-11-13T17:51:31.118Z,8.05
2017-11-13T17:54:01.307Z,6.90
2017-11-13T17:56:30.330Z,7.35
2017-11-13T17:58:58.500Z,9.52
2017-11-13T18:01:26.663Z,7.57
2017-11-13T18:03:56.600Z,11.12
2017-11-13T18:06:24.756Z,13.07
2017-11-13T18:08:52.921Z,13.98
2017-11-13T18:11:21.926Z,14.98
2017-11-13T18:13:50.702Z,17.15
2017-11-13T18:16:19.857Z,19.70
2017-11-13T18:18:48.014Z,11.05
2017-11-13T18:21:18.031Z,9.52
2017-11-13T18:23:46.265Z,8.10
2017-11-13T18:26:15.176Z,7.75
2017-11-13T18:28:45.127Z,9.48
2017-11-13T18:31:13.524Z,14.60
2017-11-13T18:33:41.736Z,14.70
2017-11-13T18:36:09.908Z,13.80
2017-11-13T18:38:38.459Z,15.10
2017-11-13T18:41:06.630Z,18.92
2017-11-13T18:43:35.969Z,21.15
2017-11-13T18:46:04.121Z,8.27
2017-11-13T18:48:32.294Z,9.85
2017-11-13T18:51:01.006Z,6.97
2017-11-13T18:53:30.204Z,8.75
2017-11-13T18:55:58.346Z,9.35
2017-11-13T18:58:26.524Z,17.37
2017-11-13T19:00:55.545Z,15.00
2017-11-13T19:03:27.864Z,13.88
2017-11-13T19:05:56.051Z,12.32
2017-11-13T19:08:26.211Z,11.75
2017-11-13T19:10:55.143Z,11.95
2017-11-13T19:13:24.427Z,10.05
2017-11-13T19:15:53.018Z,10.93
2017-11-13T19:18:21.199Z,11.50
2017-11-13T19:20:49.359Z,12.93
2017-11-13T19:23:17.528Z,12.52
2017-11-13T19:25:45.773Z,11.12
2017-11-13T19:28:14.707Z,11.90
2017-11-13T19:31:19.329Z,13.77
2017-11-13T19:33:51.032Z,14.23
2017-11-13T19:36:19.344Z,14.95
2017-11-13T19:42:02.075Z,15.00
2017-11-13T19:44:31.867Z,15.13
2017-11-13T19:50:36.308Z,19.15
2017-11-13T19:53:05.369Z,17.95
2017-11-13T19:55:33.579Z,14.65
2017-11-13T19:58:02.497Z,11.77
2017-11-13T20:00:30.808Z,11.63
2017-11-13T20:02:58.995Z,11.75
2017-11-13T20:11:34.561Z,13.88
2017-11-13T20:14:04.000Z,20.08
2017-11-13T20:16:32.520Z,18.02
2017-11-13T20:19:01.000Z,22.58
2017-11-13T20:21:29.485Z,22.85
2017-11-13T20:23:57.950Z,22.35
2017-11-13T20:26:26.385Z,19.98
2017-11-13T20:28:55.431Z,20.58
2017-11-13T20:31:24.427Z,19.85
2017-11-13T20:33:52.715Z,13.50
2017-11-13T20:36:21.281Z,13.30
2017-11-13T20:38:49.502Z,11.80
2017-11-13T20:41:17.683Z,13.13
2017-11-13T20:43:46.697Z,16.58
2017-11-13T20:46:15.392Z,15.88
2017-11-13T20:48:43.567Z,15.60
2017-11-13T20:51:11.759Z,15.73
2017-11-13T20:53:43.319Z,15.82
2017-11-13T20:56:11.495Z,17.42
2017-11-13T20:58:39.712Z,17.17
2017-11-13T21:01:07.898Z,18.35
2017-11-13T21:03:36.049Z,16.12
2017-11-13T21:06:04.237Z,16.23
2017-11-13T21:08:32.459Z,17.50
2017-11-13T21:11:00.638Z,15.32
2017-11-13T21:13:28.946Z,16.25
2017-11-13T21:15:57.110Z,19.62
2017-11-13T21:18:25.364Z,19.12
2017-11-13T21:20:53.543Z,20.77
2017-11-13T21:23:27.597Z,21.33
2017-11-13T21:25:55.845Z,19.15
2017-11-13T21:28:24.018Z,21.58
2017-11-13T21:30:52.180Z,17.60
2017-11-13T21:33:20.457Z,17.77
2017-11-13T21:35:49.929Z,13.10
2017-11-13T21:38:18.145Z,16.70
2017-11-13T21:40:46.370Z,14.87
2017-11-13T21:43:14.541Z,12.95
2017-11-13T21:45:42.681Z,13.07
2017-11-13T21:48:10.846Z,11.43
2017-11-13T21:50:39.012Z,12.10
2017-11-13T21:53:07.434Z,14.70
2017-11-13T21:55:35.603Z,11.55
2017-11-13T21:58:03.759Z,13.05
2017-11-13T22:00:31.912Z,13.98
2017-11-13T22:03:41.225Z,14.38
2017-11-13T22:06:09.400Z,14.52
2017-11-13T22:08:37.554Z,15.23
2017-11-13T22:11:07.974Z,13.23
2017-11-13T22:13:36.915Z,12.63
2017-11-13T22:16:05.066Z,13.85
2017-11-13T22:18:33.249Z,15.40
2017-11-13T22:21:02.154Z,16.05
2017-11-13T22:23:30.442Z,21.73
2017-11-13T22:25:59.200Z,18.58
2017-11-13T22:28:27.915Z,14.77
2017-11-13T22:31:20.128Z,15.70
2017-11-13T22:33:49.400Z,16.05
2017-11-13T22:36:18.159Z,11.43
2017-11-13T22:38:46.320Z,13.38
2017-11-13T22:41:14.481Z,12.00
2017-11-13T22:43:43.164Z,12.80
2017-11-13T22:46:11.338Z,14.98
2017-11-13T22:48:39.570Z,15.32
2017-11-13T22:51:09.520Z,19.20
2017-11-13T22:53:37.815Z,17.02
2017-11-13T22:56:05.977Z,16.23
2017-11-13T22:58:34.178Z,16.42
2017-11-13T23:01:03.067Z,17.75
2017-11-13T23:03:31.308Z,18.83
2017-11-13T23:05:59.470Z,18.17
2017-11-13T23:08:28.664Z,17.73
2017-11-13T23:10:56.826Z,15.60
2017-11-13T23:13:26.081Z,19.30
2017-11-13T23:15:55.137Z,19.02
2017-11-13T23:18:23.300Z,19.77
2017-11-13T23:20:51.472Z,20.27
2017-11-13T23:23:19.654Z,24.95
2017-11-13T23:25:47.816Z,21.30
2017-11-13T23:28:16.020Z,23.98
2017-11-13T23:30:44.195Z,22.77
2017-11-13T23:33:12.441Z,23.02
2017-11-13T23:35:40.616Z,19.27
2017-11-13T23:38:09.655Z,16.12
2017-11-13T23:40:38.287Z,17.45
2017-11-13T23:43:06.467Z,18.12
2017-11-13T23:45:34.630Z,14.38
2017-11-13T23:48:02.809Z,16.75
2017-11-13T23:50:30.971Z,15.85
2017-11-13T23:52:59.148Z,16.30
2017-11-13T23:55:27.340Z,14.38
2017-11-13T23:57:55.503Z,14.70
